Weather reports worldwide

Advertisment
Hohenpeißenberg, Germany (10962): temperature & dewpoint: 20.03.2019 08:00:00 - 26.03.2019 08:00:00 (CET)Hohenpeißenberg, Germany (10962): temperature 5cm & temperature -5cm: 20.03.2019 08:00:00 - 26.03.2019 08:00:00 (CET)Hohenpeißenberg, Germany (10962): temperature -20cm & temperature -100cm: 20.03.2019 08:00:00 - 26.03.2019 08:00:00 (CET)Hohenpeißenberg, Germany (10962): wind speed & gusts: 20.03.2019 08:00:00 - 26.03.2019 08:00:00 (CET)Hohenpeißenberg, Germany (10962): wind direction: 20.03.2019 08:00:00 - 26.03.2019 08:00:00 (CET)Hohenpeißenberg, Germany (10962): visibility: 20.03.2019 08:00:00 - 26.03.2019 08:00:00 (CET)Hohenpeißenberg, Germany (10962): sunshine duration: 20.03.2019 08:00:00 - 26.03.2019 08:00:00 (CET)Hohenpeißenberg, Germany (10962): precipitation: 20.03.2019 08:00:00 - 26.03.2019 08:00:00 (CET)
Date & Time tt [°C] td [°C] tt 5cm [°C] tt -5cm [°C] tt -20cm [°C] tt -100cm [°C] ff [km/h] ff [kn] fx [km/h] fx [kn] dd vv [km] sd [min] rr [mm]
26.03.2019 08:00:00 -2,0 -2,3 -1,3 2,4 4,4 4,9 8 4 16 9 N 6 0 0,0
26.03.2019 07:00:00 -2,0 -2,1 -1,5 2,3 4,5 4,8 9 5 19 10 NNE 0,1 0 0,0
26.03.2019 06:00:00 -1,9 -2,0 -1,5 2,3 4,6 4,8 13 7 21 11 NNE 0,1 0 0,0
26.03.2019 05:00:00 -1,7 -1,8 -1,3 2,4 4,8 4,8 13 7 22 12 N 0,1 0 0,0
26.03.2019 04:00:00 -1,7 -1,7 -1,3 2,5 4,9 4,8 13 7 23 12 N 0,1 0 0,0
26.03.2019 03:00:00 -1,6 -1,6 -1,2 2,5 5,1 4,8 10 6 18 10 N 0,1 0 0,0
26.03.2019 02:00:00 -1,9 -2,3 -1,8 2,5 5,3 4,8 10 5 18 10 N 10 0 0,0
26.03.2019 01:00:00 -1,4 -2,2 -1,6 2,7 5,5 4,8 8 4 15 8 WNW 17 0 0,0
26.03.2019 00:00:00 -1,7 -2,2 -1,6 2,9 5,8 4,8 10 6 19 10 WNW 15 0 0,0
25.03.2019 23:00:00 -1,9 -2,2 -1,9 3,1 6,1 4,7 12 6 22 12 W 10 0 0,0
25.03.2019 22:00:00 -1,8 -2,4 -2,5 3,7 6,3 4,7 12 7 21 11 W 26 0 0,0
25.03.2019 21:00:00 -1,1 -1,8 -1,1 4,1 6,6 4,7 14 7 26 14 W 10 0 0,1
25.03.2019 20:00:00 -1,4 -1,8 -1,6 4,7 6,9 4,7 16 9 29 16 W 25 0 0,1
25.03.2019 19:00:00 -1,3 -1,4 -1,1 5,5 7,1 4,7 13 7 48 26 NW 1,2 2 0,1
25.03.2019 18:00:00 1,2 -4,1 1,4 6,7 7,2 4,7 18 10 45 24 W 48 4 0,0
25.03.2019 17:00:00 1,4 -1,8 1,9 7,8 7,2 4,7 11 6 49 26 NW 30 11 0,0
25.03.2019 16:00:00 4,2 -4,5 5,0 8,2 7,1 4,6 15 8 45 25 W 57 9 0,0
25.03.2019 15:00:00 4,4 -5,0 5,5 8,6 7,0 4,6 13 7 49 26 WNW 62 1 0,0
25.03.2019 14:00:00 5,0 -5,5 8,2 9,0 6,8 4,6 19 10 49 26 WNW 53 24 0,0
25.03.2019 13:00:00 5,8 -4,3 9,6 7,8 6,7 4,6 19 11 47 26 NW 44 16 0,0
25.03.2019 12:00:00 3,9 -1,5 5,5 7,0 6,8 4,6 13 7 42 23 NW 25 9 0,0
25.03.2019 11:00:00 2,2 -0,5 3,2 5,9 6,9 4,6 18 10 39 21 NW 14 0 0,0
25.03.2019 10:00:00 2,8 1,0 3,2 6,3 7,0 4,5 13 7 32 17 NW 6 0 0,0
25.03.2019 09:00:00 3,2 1,3 3,8 6,1 7,1 4,5 14 7 32 17 WNW 6 0 0,0
25.03.2019 08:00:00 3,3 1,8 3,8 6,1 7,2 4,5 12 7 32 17 WNW 4,6 0 0,0
25.03.2019 07:00:00 3,1 2,0 3,0 6,2 7,4 4,5 13 7 34 18 W 3,8 0 0,0
25.03.2019 06:00:00 3,5 2,2 3,7 6,6 7,6 4,5 11 6 27 14 WNW 3,9 0 0,0
25.03.2019 05:00:00 3,9 2,7 4,0 6,8 7,7 4,5 11 6 27 14 WNW 3,1 0 0,0
25.03.2019 04:00:00 4,4 3,2 4,5 7,1 7,9 4,5 9 5 23 13 NW 2,9 0 0,0
25.03.2019 03:00:00 4,9 3,0 4,8 7,3 8,1 4,5 10 5 20 11 NW 4,4 0 0,0
25.03.2019 02:00:00 5,5 3,0 5,4 7,5 8,4 4,4 14 7 23 12 WSW 5 0 0,0
25.03.2019 01:00:00 5,7 3,1 5,2 7,7 8,7 4,4 11 6 21 11 W 6 0 0,0
25.03.2019 00:00:00 5,5 4,1 4,1 8,2 8,9 4,4 10 6 14 8 W 4,0 0 0,0
24.03.2019 23:00:00 6,0 3,9 5,9 9,0 9,2 4,4 9 5 14 8 N 4,8 0 0,0
24.03.2019 22:00:00 6,3 4,3 5,5 9,5 9,5 4,4 9 5 24 13 N 5 0 0,0
24.03.2019 21:00:00 6,9 4,4 6,3 10,1 9,8 4,4 14 8 30 16 N 6 0 0,0
24.03.2019 20:00:00 9,0 2,6 8,1 11,2 10,0 4,4 16 9 30 16 N 13 0 0,0
24.03.2019 19:00:00 11,0 -1,5 9,8 12,4 10,1 4,4 17 9 35 19 W 31 12 0,0
24.03.2019 18:00:00 12,4 -1,2 11,9 14,4 10,0 4,3 18 10 38 21 W 31 60 0,0
24.03.2019 17:00:00 13,7 0,0 14,6 16,2 9,7 4,3 16 9 35 19 W 28 60 0,0
24.03.2019 16:00:00 15,2 0,3 17,4 17,6 9,2 4,3 14 7 29 16 W 31 60 0,0
24.03.2019 15:00:00 15,5 -1,0 18,8 18,1 8,6 4,3 14 8 36 19 W 51 60 0,0
24.03.2019 14:00:00 15,6 1,2 19,8 17,8 7,8 4,3 8 4 23 12 WNW 22 60 0,0
24.03.2019 13:00:00 15,3 1,1 19,2 16,4 7,1 4,3 5 3 18 10 WNW 22 60 0,0
24.03.2019 12:00:00 13,0 1,0 18,8 14,4 6,5 4,3 7 4 16 9 N 20 60 0,0
24.03.2019 11:00:00 12,0 0,8 16,9 12,1 6,0 4,3 7 4 13 7 NNW 20 60 0,0
24.03.2019 10:00:00 10,5 0,0 14,4 9,2 5,7 4,2 5 3 9 5 WNW 25 60 0,0
24.03.2019 09:00:00 9,5 -0,1 12,3 6,5 5,7 4,2 4 2 9 5 WNW 22 60 0,0
24.03.2019 08:00:00 7,5 -0,9 8,2 4,7 5,9 4,2 7 4 13 7 WSW 31 60 0,0
24.03.2019 07:00:00 8,5 -0,3 5,7 4,2 6,1 4,2 6 3 10 6 E 23 19 0,0
24.03.2019 06:00:00 8,2 -0,6 4,2 4,5 6,3 4,2 7 4 11 6 SE 27 0 0,0
24.03.2019 05:00:00 8,6 -0,4 5,1 4,9 6,6 4,2 8 4 10 5 ESE 22 0 0,0
24.03.2019 04:00:00 8,6 -0,3 4,7 5,4 6,8 4,2 6 4 13 7 ESE 23 0 0,0
24.03.2019 03:00:00 9,6 -0,1 7,0 5,8 7,0 4,2 9 5 16 9 E 21 0 0,0
24.03.2019 02:00:00 9,4 0,2 7,1 6,1 7,3 4,2 11 6 17 9 E 17 0 0,0
24.03.2019 01:00:00 9,1 0,5 6,5 6,5 7,5 4,2 13 7 18 10 ENE 18 0 0,0
24.03.2019 00:00:00 9,7 0,0 7,4 7,0 7,8 4,2 10 5 16 8 E 18 0 0,0
23.03.2019 23:00:00 10,2 0,3 7,9 7,6 8,1 4,2 9 5 16 9 E 18 0 0,0
23.03.2019 22:00:00 10,3 -0,5 7,8 8,2 8,4 4,1 11 6 20 11 E 20 0 0,0
23.03.2019 21:00:00 10,5 -2,0 8,4 9,1 8,7 4,1 16 9 21 11 NNE 25 0 0,0
23.03.2019 20:00:00 11,1 -1,1 8,7 10,1 8,9 4,1 15 8 18 10 NNE 24 0 0,0
23.03.2019 19:00:00 11,5 -1,2 9,5 11,7 9,0 4,1 16 9 19 10 NNE 27 26 0,0
23.03.2019 18:00:00 12,0 -0,4 11,7 13,8 8,9 4,1 12 6 19 10 NNE 29 60 0,0
23.03.2019 17:00:00 13,6 0,1 15,1 15,8 8,5 4,1 11 6 17 9 NNE 29 60 0,0
23.03.2019 16:00:00 14,5 -0,1 17,8 16,9 7,9 4,1 8 5 18 10 N 30 60 0,0
23.03.2019 15:00:00 14,6 -1,0 18,5 17,2 7,2 4,1 10 5 21 11 N 23 60 0,0
23.03.2019 14:00:00 14,4 -0,8 19,6 16,8 6,5 4,1 10 5 18 10 N 26 60 0,0
23.03.2019 13:00:00 15,8 -2,9 20,1 15,3 5,7 4,1 8 4 18 10 W 28 60 0,0
23.03.2019 12:00:00 15,5 -2,3 19,2 13,3 5,0 4,1 5 3 16 9 SW 30 60 0,0
23.03.2019 11:00:00 13,0 -1,9 16,3 10,6 4,5 4,1 7 4 15 8 WNW 32 60 0,0
23.03.2019 10:00:00 11,5 -4,7 14,2 7,7 4,2 4,1 9 5 17 9 WSW 40 60 0,0
23.03.2019 09:00:00 10,7 -5,3 12,2 5,0 4,1 4,1 9 5 16 9 SW 48 60 0,0
23.03.2019 08:00:00 9,3 -5,1 9,2 3,2 4,2 4,1 9 5 19 10 WSW 53 60 0,0
23.03.2019 07:00:00 8,1 -3,9 5,5 2,7 4,4 4,1 13 7 19 11 WSW 48 22 0,0
23.03.2019 06:00:00 8,2 -3,5 5,7 2,8 4,6 4,0 13 7 22 12 WSW 50 0 0,0
23.03.2019 05:00:00 8,1 -2,6 5,6 3,0 4,7 4,0 15 8 22 12 WSW 50 0 0,0
23.03.2019 04:00:00 8,8 -2,6 6,2 3,2 5,0 4,0 16 8 20 11 W 48 0 0,0
23.03.2019 03:00:00 8,4 -1,9 5,6 3,4 5,2 4,0 13 7 16 9 W 39 0 0,0
23.03.2019 02:00:00 8,6 -0,6 4,6 3,8 5,4 4,0 10 5 14 7 WSW 34 0 0,0
23.03.2019 01:00:00 8,4 -0,7 5,3 4,2 5,7 4,0 9 5 13 7 SSW 39 0 0,0
23.03.2019 00:00:00 8,9 -0,1 5,7 4,6 6,0 4,0 9 5 15 8 SSW 37 0 0,0
22.03.2019 23:00:00 8,1 -0,3 2,8 5,2 6,3 4,0 11 6 14 8 SSE 35 0 0,0
22.03.2019 22:00:00 8,3 -1,5 4,3 5,9 6,6 4,0 12 6 14 8 SSE 34 0 0,0
22.03.2019 21:00:00 9,6 -2,0 6,6 6,8 6,8 4,0 12 7 15 8 SSE 38 0 0,0
22.03.2019 20:00:00 10,0 -2,0 6,8 7,9 7,0 4,0 11 6 15 8 SE 40 0 0,0
22.03.2019 19:00:00 10,1 -1,3 6,7 9,5 7,1 4,0 6 3 9 5 E 36 0 0,0
22.03.2019 18:00:00 10,7 -0,8 9,8 11,3 6,9 4,0 6 4 13 7 NNE 45 56 0,0
22.03.2019 17:00:00 11,4 -0,5 12,9 12,9 6,6 4,0 8 5 13 7 N 38 60 0,0
22.03.2019 16:00:00 12,1 -0,3 15,7 13,9 6,0 4,0 7 4 22 12 N 41 60 0,0
22.03.2019 15:00:00 11,5 -0,8 16,0 14,0 5,4 4,0 11 6 18 10 N 43 60 0,0
22.03.2019 14:00:00 11,8 -0,7 15,9 14,0 4,7 4,0 11 6 18 10 NNE 35 60 0,0
22.03.2019 13:00:00 11,0 -0,2 15,7 12,6 3,9 4,0 9 5 16 8 NNE 32 60 0,0
22.03.2019 12:00:00 10,2 -1,1 14,8 10,8 3,2 4,0 5 3 16 9 N 43 60 0,0
22.03.2019 11:00:00 8,8 -1,4 11,9 7,9 2,8 4,0 6 3 18 10 WNW 54 60 0,0
22.03.2019 10:00:00 6,6 -2,4 10,1 5,0 2,6 4,0 10 6 19 10 WSW 57 60 0,0
22.03.2019 09:00:00 5,8 -3,5 7,7 2,0 2,6 4,0 9 5 21 11 W 68 60 0,0
22.03.2019 08:00:00 3,7 -4,7 3,6 1,0 2,7 4,0 13 7 19 10 WSW 48 60 0,0
22.03.2019 07:00:00 2,8 -3,3 0,3 1,0 2,8 4,0 5 3 10 5 S 50 19 0,0
22.03.2019 06:00:00 3,0 -3,7 0,5 1,1 2,9 4,0 7 4 12 7 ESE 54 0 0,0
22.03.2019 05:00:00 2,7 -3,3 -0,3 1,2 3,0 4,0 8 5 14 8 ESE 55 0 0,0
22.03.2019 04:00:00 3,5 -3,0 1,5 1,3 3,2 4,0 12 6 21 12 ESE 47 0 0,0
22.03.2019 03:00:00 4,4 -2,8 2,4 1,4 3,4 4,0 11 6 21 11 E 49 0 0,0
22.03.2019 02:00:00 4,9 -2,7 3,0 1,6 3,6 4,0 13 7 21 11 E 49 0 0,0
22.03.2019 01:00:00 4,7 -2,3 2,9 1,9 3,8 4,0 12 6 19 10 ESE 47 0 0,0
22.03.2019 00:00:00 5,8 -2,2 3,4 2,2 4,0 4,0 12 7 19 11 E 46 0 0,0
21.03.2019 23:00:00 5,4 -2,5 3,4 2,5 4,2 4,0 11 6 22 12 E 49 0 0,0
21.03.2019 22:00:00 4,3 -2,9 2,9 3,0 4,5 4,0 16 9 25 14 E 39 0 0,0
21.03.2019 21:00:00 4,4 -2,8 3,0 3,7 4,7 4,0 17 9 29 16 ENE 38 0 0,0
21.03.2019 20:00:00 4,9 -2,2 3,3 4,5 4,9 4,0 21 11 30 16 ENE 39 0 0,0
21.03.2019 19:00:00 5,3 -2,6 3,6 5,7 5,0 4,0 17 9 25 13 NE 50 28 0,0
21.03.2019 18:00:00 6,5 -3,1 6,0 7,5 4,9 4,0 15 8 24 13 NE 48 60 0,0
21.03.2019 17:00:00 7,7 -3,6 8,7 8,9 4,6 4,0 11 6 31 17 NE 52 60 0,0
21.03.2019 16:00:00 8,1 -3,0 10,2 10,0 4,1 4,0 19 10 30 16 NE 59 60 0,0
21.03.2019 15:00:00 8,3 -3,0 11,3 9,9 3,6 4,0 14 8 26 14 NE 57 60 0,0
21.03.2019 14:00:00 7,5 -3,8 11,0 9,3 3,0 4,0 12 7 29 16 ENE 43 60 0,0
21.03.2019 13:00:00 6,2 -4,5 9,5 8,0 2,5 4,0 15 8 28 15 ENE 51 60 0,0
21.03.2019 12:00:00 5,1 -4,1 8,3 6,1 2,2 4,0 16 9 29 16 NE 46 59 0,0
21.03.2019 11:00:00 3,9 -4,7 6,4 3,3 2,1 4,0 15 8 29 16 ENE 37 60 0,0
21.03.2019 10:00:00 1,3 -4,9 3,6 0,4 2,1 4,0 17 9 31 17 ENE 31 60 0,0
21.03.2019 09:00:00 0,0 -5,7 1,6 0,4 2,2 4,0 14 8 22 12 ENE 42 60 0,0
21.03.2019 08:00:00 0,1 -5,7 0,7 0,4 2,3 4,0 10 6 27 14 ESE 64 60 0,0
21.03.2019 07:00:00 -1,2 -5,6 -2,3 0,5 2,5 4,0 16 8 24 13 E 45 20 0,0
21.03.2019 06:00:00 -1,5 -5,2 -2,5 0,6 2,6 4,0 14 7 26 14 E 47 0 0,0
21.03.2019 05:00:00 -0,5 -5,3 -1,6 0,7 2,7 4,0 14 8 26 14 E 51 0 0,0
21.03.2019 04:00:00 -0,3 -5,1 -1,4 0,9 2,9 4,0 12 7 27 15 E 52 0 0,0
21.03.2019 03:00:00 -0,7 -4,8 -1,9 1,0 3,0 4,0 14 8 22 12 E 45 0 0,0
21.03.2019 02:00:00 0,1 -4,7 -1,3 1,2 3,2 4,0 13 7 23 12 E 45 0 0,0
21.03.2019 01:00:00 0,6 -4,9 -0,9 1,4 3,4 4,0 10 6 21 11 ESE 44 0 0,0
21.03.2019 00:00:00 0,8 -5,6 -0,5 1,6 3,7 4,0 13 7 29 16 E 47 0 0,0
20.03.2019 23:00:00 0,5 -5,7 -0,8 1,8 3,9 4,0 18 10 27 15 ENE 42 0 0,0
20.03.2019 22:00:00 1,1 -6,0 0,0 2,1 4,3 4,0 14 8 25 13 E 43 0 0,0
20.03.2019 21:00:00 1,4 -5,6 0,2 2,4 4,6 4,0 13 7 23 12 E 48 0 0,0
20.03.2019 20:00:00 1,6 -5,8 0,4 3,5 4,9 4,0 15 8 27 15 ENE 38 0 0,0
20.03.2019 19:00:00 1,8 -5,3 0,4 5,1 5,0 4,0 15 8 21 11 NE 42 28 0,0
20.03.2019 18:00:00 2,8 -5,3 2,8 7,2 5,0 4,0 14 8 19 10 NE 43 60 0,0
20.03.2019 17:00:00 4,0 -5,7 5,5 9,0 4,7 4,0 10 6 21 12 NE 55 60 0,0
20.03.2019 16:00:00 4,2 -6,0 6,9 10,0 4,3 4,0 10 5 22 12 NE 64 60 0,0
20.03.2019 15:00:00 4,7 -5,5 8,5 10,2 3,8 4,0 10 5 23 13 E 75 60 0,0
20.03.2019 14:00:00 4,2 -5,2 7,9 9,9 3,2 4,0 10 5 26 14 ENE 65 60 0,0
20.03.2019 13:00:00 3,6 -5,8 7,4 8,9 2,6 4,0 13 7 28 15 NE 46 60 0,0
20.03.2019 12:00:00 2,8 -5,0 6,9 7,1 2,2 4,0 13 7 23 12 NE 36 58 0,0
20.03.2019 11:00:00 1,9 -5,3 4,1 4,3 2,0 4,0 8 4 18 10 E 41 57 0,0
20.03.2019 10:00:00 2,5 -4,4 4,9 1,1 2,0 4,0 5 3 17 9 SSE 39 60 0,0
20.03.2019 09:00:00 2,9 -3,0 3,1 0,6 2,1 4,0 3 1 13 7 S 33 60 0,0
20.03.2019 08:00:00 -0,4 -4,6 0,0 0,6 2,2 4,0 8 4 13 7 NE 35 60 0,0

tt = temperature
td = dewpoint
tt 5cm = temperature 5cm
tt -5cm = temperature -5cm
tt -20cm = temperature -20cm
tt -100cm = temperature -100cm
ff = wind speed
fx = gusts
dd = wind direction
vv = visibility
sd = sunshine duration
rr = precipitation

Next stations